Joiner, AR

6:37 AM CDT on October 24, 2014 (GMT -0500)
Memphis International | Change Station
CLOSE
Current Station
Airport
Location: Memphis,
Elevation: 331 ft
Nearby Weather Stations

Elev 331 ft 35.06 °N, 89.99 °W | Updated 43 minutes ago

Partly Cloudy
Partly Cloudy
48 °F
Feels Like 48 °F
N
0
Wind Variable Wind from North

Today
High -- | Low -- °F
--% Chance of Precip.
Yesterday
High -- | Low -- °F
Precip. -- in
7:14 AM 6:14 PM
New Moon, 0% visible
Pressure 30.13 in
Visibility 9.0 miles
Clouds Clear
Dew Point 45 °F
Humidity 89%
Rainfall 0.00 in
Snow Depth Not available.
UV 0 out of 12
Pollen 1.00 out of 12
Air Quality Not available.
Flu Activity Sporadic
METAR KMEM 241054Z 00000KT 9SM CLR 09/07 A3013 RMK AO2 SLP202 T00890072 $

More Conditions Fewer Conditions

Pressure 30.13 in
Visibility 9.0 miles
Clouds Clear
Dew Point 45 °F
Humidity 89%
Rainfall 0.00 in
Snow Depth Not available.
UV 0 out of 12
Pollen 1.00 out of 12
Air Quality Not available.
Flu Activity Sporadic
METAR KMEM 241054Z 00000KT 9SM CLR 09/07 A3013 RMK AO2 SLP202 T00890072 $

More Conditions Fewer Conditions

10-Day Weather Forecast

Almanac

Astronomy

Oct. 24, 2014 Rise Set
Actual Time 7:14 AM CDT 6:14 PM CDT
Civil Twilight 6:48 AM CDT 6:40 PM CDT
Nautical Twilight 6:19 AM CDT 7:09 PM CDT
Astronomical Twilight 5:49 AM CDT 7:39 PM CDT
Moon 7:52 AM CDT 6:55 PM CDT
Length of Visible Light 11h 51m
Length of Day
10h 59m
Tomorrow will be 2m 4s shorter.
New Moon, 0% of the Moon is Illuminated
Today
New Moon
Oct 30
First Quarter
Nov 6
Full
Nov 14
Last Quarter
Nov 22
New

Today's Extremes

State Highs State Lows

Community

WunderPhotos

Upload Photos

1,764,525 photos uploaded!

WunderBlogs® & News

Nearby

Snow Depth

Station Depth Elevation
No new snow has been reported.

Earthquake Activity

City Distance Mag. Time & Date
No recent earthquake activity has been reported nearby.
Minimum magnitude displayed is 2.5.

Coastal Water Temperatures

Place Temperature
No Stations Reporting

Nearby Weather Stations